createdAt,value
2022-11-24T00:01:53.139Z,23.75
2022-11-24T00:04:19.657Z,23.73
2022-11-24T00:06:46.162Z,23.70
2022-11-24T00:09:12.672Z,23.71
2022-11-24T00:11:39.185Z,23.69
2022-11-24T00:14:05.867Z,23.68
2022-11-24T00:16:36.427Z,23.63
2022-11-24T00:19:04.093Z,23.66
2022-11-24T00:21:31.068Z,23.65
2022-11-24T00:23:57.713Z,23.62
2022-11-24T00:26:26.510Z,23.63
2022-11-24T00:28:54.089Z,23.59
2022-11-24T00:31:20.509Z,23.57
2022-11-24T00:33:47.727Z,23.56
2022-11-24T00:36:14.540Z,23.52
2022-11-24T00:38:41.026Z,23.54
2022-11-24T00:41:07.574Z,23.50
2022-11-24T00:43:34.447Z,23.49
2022-11-24T00:46:01.034Z,23.47
2022-11-24T00:48:27.585Z,23.46
2022-11-24T00:51:10.744Z,23.42
2022-11-24T00:53:37.258Z,23.39
2022-11-24T00:56:04.016Z,23.37
2022-11-24T00:58:30.551Z,23.33
2022-11-24T01:01:08.035Z,23.32
2022-11-24T01:03:34.730Z,23.30
2022-11-24T01:08:34.376Z,23.28
2022-11-24T01:11:20.783Z,23.26
2022-11-24T01:13:48.784Z,23.23
2022-11-24T01:16:25.069Z,23.21
2022-11-24T01:18:51.709Z,23.18
2022-11-24T01:21:18.445Z,23.16
2022-11-24T01:23:44.946Z,23.17
2022-11-24T01:26:13.740Z,23.16
2022-11-24T01:28:46.255Z,23.16
2022-11-24T01:31:13.902Z,23.15
2022-11-24T01:33:40.447Z,23.13
2022-11-24T01:36:07.064Z,23.10
2022-11-24T01:38:33.605Z,23.10
2022-11-24T01:41:21.240Z,23.08
2022-11-24T01:43:48.102Z,23.09
2022-11-24T01:46:24.630Z,23.05
2022-11-24T01:49:09.153Z,23.03
2022-11-24T01:51:43.484Z,23.01
2022-11-24T01:54:15.779Z,23.01
2022-11-24T01:56:42.665Z,22.97
2022-11-24T01:59:10.907Z,22.95
2022-11-24T02:01:37.452Z,22.93
2022-11-24T02:04:04.961Z,22.91
2022-11-24T02:06:31.733Z,22.88
2022-11-24T02:09:20.044Z,22.87
2022-11-24T02:11:46.500Z,22.84
2022-11-24T02:14:14.138Z,22.82
2022-11-24T02:16:41.089Z,22.81
2022-11-24T02:19:36.840Z,22.78
2022-11-24T02:22:03.576Z,22.75
2022-11-24T02:24:47.532Z,22.75
2022-11-24T02:27:13.995Z,22.71
2022-11-24T02:29:40.466Z,22.68
2022-11-24T02:32:07.321Z,22.68
2022-11-24T02:34:34.314Z,22.67
2022-11-24T02:37:01.002Z,22.64
2022-11-24T02:39:27.491Z,22.61
2022-11-24T02:41:56.910Z,22.62
2022-11-24T02:44:24.948Z,22.58
2022-11-24T02:47:02.094Z,22.56
2022-11-24T02:49:28.566Z,22.53
2022-11-24T02:51:55.012Z,22.49
2022-11-24T02:54:21.471Z,22.49
2022-11-24T02:56:47.931Z,22.49
2022-11-24T02:59:14.376Z,22.47
2022-11-24T03:01:40.888Z,22.45
2022-11-24T03:04:07.910Z,22.43
2022-11-24T03:06:34.373Z,22.45
2022-11-24T03:09:00.848Z,22.51
2022-11-24T03:11:27.292Z,22.50
2022-11-24T03:13:53.744Z,22.52
2022-11-24T03:16:20.613Z,22.49
2022-11-24T03:18:48.476Z,22.46
2022-11-24T03:21:14.929Z,22.43
2022-11-24T03:23:41.369Z,22.40
2022-11-24T03:26:09.314Z,22.40
2022-11-24T03:28:35.863Z,22.37
2022-11-24T03:31:02.905Z,22.34
2022-11-24T03:33:29.448Z,22.29
2022-11-24T03:35:56.023Z,22.33
2022-11-24T03:38:22.494Z,22.36
2022-11-24T03:40:49.543Z,22.34
2022-11-24T03:43:16.022Z,22.33
2022-11-24T03:45:46.709Z,22.35
2022-11-24T03:48:15.462Z,22.35
2022-11-24T03:50:42.877Z,22.36
2022-11-24T03:53:09.521Z,22.34
2022-11-24T03:55:36.138Z,22.33
2022-11-24T03:58:02.647Z,22.31
2022-11-24T04:00:30.123Z,22.29
2022-11-24T04:02:56.655Z,22.27
2022-11-24T04:05:25.958Z,22.26
2022-11-24T04:07:57.002Z,22.24
2022-11-24T04:10:24.574Z,22.20
2022-11-24T04:12:51.042Z,22.20
2022-11-24T04:15:18.767Z,22.18
2022-11-24T04:17:45.548Z,22.18
2022-11-24T04:20:12.412Z,22.13
2022-11-24T04:22:39.087Z,22.12
2022-11-24T04:25:06.138Z,22.12
2022-11-24T04:27:33.309Z,22.12
2022-11-24T04:29:59.781Z,22.11
2022-11-24T04:32:26.245Z,22.10
2022-11-24T04:34:53.134Z,22.09
2022-11-24T04:37:19.604Z,22.08
2022-11-24T04:39:46.341Z,22.07
2022-11-24T04:42:12.943Z,22.05
2022-11-24T04:44:39.409Z,22.02
2022-11-24T04:47:05.983Z,22.00
2022-11-24T04:49:32.500Z,21.98
2022-11-24T04:51:59.152Z,21.97
2022-11-24T04:54:25.622Z,21.92
2022-11-24T04:56:52.143Z,21.92
2022-11-24T04:59:18.979Z,21.89
2022-11-24T05:01:46.063Z,21.86
2022-11-24T05:04:13.536Z,21.85
2022-11-24T05:06:40.112Z,21.84
2022-11-24T05:09:06.702Z,21.85
2022-11-24T05:11:33.262Z,21.85
2022-11-24T05:14:00.120Z,21.84
2022-11-24T05:16:26.599Z,21.84
2022-11-24T05:18:53.142Z,21.84
2022-11-24T05:21:19.623Z,21.84
2022-11-24T05:23:46.105Z,21.82
2022-11-24T05:26:12.666Z,21.79
2022-11-24T05:28:39.185Z,21.78
2022-11-24T05:31:05.767Z,21.75
2022-11-24T05:33:33.353Z,21.74
2022-11-24T05:36:01.363Z,21.72
2022-11-24T05:38:27.943Z,21.74
2022-11-24T05:40:54.478Z,21.75
2022-11-24T05:43:20.967Z,21.75
2022-11-24T05:45:47.442Z,21.76
2022-11-24T05:48:14.673Z,21.75
2022-11-24T05:50:41.141Z,21.75
2022-11-24T05:53:12.189Z,21.75
2022-11-24T05:55:39.369Z,21.74
2022-11-24T05:58:07.194Z,21.73
2022-11-24T06:00:34.257Z,21.72
2022-11-24T06:03:00.852Z,21.69
2022-11-24T06:05:27.868Z,21.69
2022-11-24T06:07:54.623Z,21.69
2022-11-24T06:10:22.002Z,21.67
2022-11-24T06:12:48.475Z,21.65
2022-11-24T06:15:14.982Z,21.66
2022-11-24T06:17:41.547Z,21.66
2022-11-24T06:20:09.234Z,21.63
2022-11-24T06:22:35.777Z,21.59
2022-11-24T06:25:02.238Z,21.61
2022-11-24T06:27:28.709Z,21.60
2022-11-24T06:29:55.207Z,21.57
2022-11-24T06:32:21.727Z,21.55
2022-11-24T06:34:48.190Z,21.53
2022-11-24T06:37:14.725Z,21.52
2022-11-24T06:39:41.217Z,21.49
2022-11-24T06:42:07.697Z,21.46
2022-11-24T06:44:34.432Z,21.45
2022-11-24T06:47:01.671Z,21.47
2022-11-24T06:49:28.154Z,21.47
2022-11-24T06:51:54.967Z,21.48
2022-11-24T06:54:22.110Z,21.48
2022-11-24T06:56:48.626Z,21.50
2022-11-24T06:59:17.302Z,21.48
2022-11-24T07:01:43.794Z,21.48
2022-11-24T07:04:11.323Z,21.47
2022-11-24T07:06:39.961Z,21.47
2022-11-24T07:09:06.521Z,21.41
2022-11-24T07:11:33.025Z,21.44
2022-11-24T07:14:00.247Z,21.47
2022-11-24T07:16:27.392Z,21.46
2022-11-24T07:18:53.992Z,21.47
2022-11-24T07:21:21.180Z,21.46
2022-11-24T07:23:55.429Z,21.44
2022-11-24T07:26:22.401Z,21.43
2022-11-24T07:28:48.949Z,21.42
2022-11-24T07:31:18.782Z,21.39
2022-11-24T07:33:52.498Z,21.34
2022-11-24T07:36:19.041Z,21.32
2022-11-24T07:38:45.513Z,21.34
2022-11-24T07:41:12.715Z,21.37
2022-11-24T07:43:39.216Z,21.39
2022-11-24T07:46:06.810Z,21.38
2022-11-24T07:48:34.123Z,21.37
2022-11-24T07:51:01.130Z,21.37
2022-11-24T07:53:27.974Z,21.34
2022-11-24T07:56:00.214Z,21.33
2022-11-24T07:58:32.646Z,21.33
2022-11-24T08:00:59.557Z,21.35
2022-11-24T08:03:26.087Z,21.32
2022-11-24T08:08:46.227Z,21.28
2022-11-24T08:11:14.630Z,21.27
2022-11-24T08:13:41.250Z,21.27
2022-11-24T08:16:12.359Z,21.26
2022-11-24T08:18:39.069Z,21.24
2022-11-24T08:21:05.922Z,21.24
2022-11-24T08:23:32.486Z,21.23
2022-11-24T08:26:04.769Z,21.21
2022-11-24T08:28:31.954Z,21.25
2022-11-24T08:31:09.023Z,21.23
2022-11-24T08:33:35.726Z,21.24
2022-11-24T08:36:03.774Z,21.24
2022-11-24T08:38:30.255Z,21.25
2022-11-24T08:41:03.030Z,21.29
2022-11-24T08:43:29.572Z,21.27
2022-11-24T08:45:59.544Z,21.29
2022-11-24T08:48:26.017Z,21.27
2022-11-24T08:50:52.457Z,21.29
2022-11-24T08:53:19.273Z,21.26
2022-11-24T08:55:46.066Z,21.28
2022-11-24T08:58:12.514Z,21.27
2022-11-24T09:00:38.969Z,21.26
2022-11-24T09:03:05.771Z,21.21
2022-11-24T09:08:19.592Z,21.27
2022-11-24T09:10:46.722Z,21.26
2022-11-24T09:13:13.186Z,21.25
2022-11-24T09:15:40.348Z,21.23
2022-11-24T09:18:06.806Z,21.21
2022-11-24T09:20:33.246Z,21.22
2022-11-24T09:22:59.719Z,21.19
2022-11-24T09:25:26.412Z,21.18
2022-11-24T09:27:53.632Z,21.19
2022-11-24T09:30:20.357Z,21.12
2022-11-24T09:32:46.830Z,21.02
2022-11-24T09:35:13.284Z,20.97
2022-11-24T09:37:39.926Z,20.94
2022-11-24T09:40:07.155Z,20.94
2022-11-24T09:42:53.667Z,20.91
2022-11-24T09:46:03.910Z,20.92
2022-11-24T09:48:25.986Z,20.92
2022-11-24T09:50:52.685Z,20.91
2022-11-24T09:53:29.705Z,20.91
2022-11-24T09:55:58.361Z,20.93
2022-11-24T09:58:33.960Z,21.01
2022-11-24T10:01:00.528Z,21.07
2022-11-24T10:03:43.518Z,21.10
2022-11-24T10:06:23.252Z,21.12
2022-11-24T10:09:28.209Z,21.18
2022-11-24T10:12:13.814Z,21.21
2022-11-24T10:14:54.940Z,21.22
2022-11-24T10:17:29.103Z,21.22
2022-11-24T10:20:16.727Z,21.23
2022-11-24T10:22:43.058Z,21.24
2022-11-24T10:25:42.067Z,21.22
2022-11-24T10:28:10.531Z,21.18
2022-11-24T10:30:37.041Z,21.15
2022-11-24T10:33:16.117Z,21.15
2022-11-24T10:36:02.974Z,21.16
2022-11-24T10:38:44.129Z,21.16
2022-11-24T10:41:16.678Z,21.16
2022-11-24T10:43:43.366Z,21.14
2022-11-24T10:46:28.497Z,21.12
2022-11-24T10:49:03.122Z,21.06
2022-11-24T10:52:02.130Z,21.03
2022-11-24T10:54:28.737Z,21.13
2022-11-24T10:56:55.489Z,21.13
2022-11-24T10:59:36.967Z,21.12
2022-11-24T11:02:30.025Z,21.13
2022-11-24T11:04:56.621Z,21.13
2022-11-24T11:07:25.303Z,21.12
2022-11-24T11:10:11.227Z,21.13
2022-11-24T11:12:45.369Z,21.13
2022-11-24T11:15:29.041Z,21.13
2022-11-24T11:18:01.996Z,21.13
2022-11-24T11:20:33.510Z,21.12
2022-11-24T11:23:14.589Z,21.13
2022-11-24T11:25:41.156Z,21.11
2022-11-24T11:28:18.823Z,21.09
2022-11-24T11:36:29.886Z,21.08
2022-11-24T11:38:56.388Z,21.06
2022-11-24T11:41:30.464Z,21.05
2022-11-24T11:43:59.024Z,21.05
2022-11-24T11:46:25.524Z,21.03
2022-11-24T11:48:52.845Z,21.03
2022-11-24T11:51:41.561Z,21.01
2022-11-24T11:54:30.458Z,21.01
2022-11-24T11:57:30.016Z,21.02
2022-11-24T12:00:16.211Z,21.02
2022-11-24T12:03:09.936Z,21.02
2022-11-24T12:05:58.666Z,21.03
2022-11-24T12:09:21.446Z,21.02
2022-11-24T12:11:45.107Z,21.02
2022-11-24T12:14:40.963Z,21.03
2022-11-24T12:17:13.250Z,21.06
2022-11-24T12:19:51.857Z,21.05
2022-11-24T12:22:24.514Z,21.06
2022-11-24T12:24:59.820Z,21.13
2022-11-24T12:27:37.736Z,21.19
2022-11-24T12:30:16.152Z,21.28
2022-11-24T12:32:42.755Z,21.40
2022-11-24T12:35:29.625Z,21.43
2022-11-24T12:38:05.020Z,21.47
2022-11-24T12:40:38.921Z,21.52
2022-11-24T12:43:13.481Z,21.55
2022-11-24T12:45:46.458Z,21.56
2022-11-24T12:48:42.364Z,21.58
2022-11-24T12:51:18.473Z,21.60
2022-11-24T12:53:46.547Z,21.61
2022-11-24T12:56:14.571Z,21.61
2022-11-24T12:59:03.364Z,21.50
2022-11-24T13:01:43.160Z,21.47
2022-11-24T13:04:15.918Z,21.59
2022-11-24T13:07:00.218Z,21.68
2022-11-24T13:09:26.667Z,21.76
2022-11-24T13:11:56.689Z,21.87
2022-11-24T13:14:32.265Z,21.98
2022-11-24T13:17:28.852Z,22.03
2022-11-24T13:19:50.642Z,22.11
2022-11-24T13:22:23.335Z,22.06
2022-11-24T13:25:04.677Z,21.97
2022-11-24T13:27:40.980Z,21.93
2022-11-24T13:30:33.843Z,21.89
2022-11-24T13:33:27.773Z,21.83
2022-11-24T13:36:03.955Z,21.87
2022-11-24T13:38:45.786Z,21.83
2022-11-24T13:41:32.378Z,21.79
2022-11-24T13:44:14.904Z,21.76
2022-11-24T13:47:26.801Z,21.88
2022-11-24T13:49:53.289Z,21.79
2022-11-24T13:52:47.537Z,21.76
2022-11-24T13:55:13.884Z,21.70
2022-11-24T13:57:48.004Z,21.57
2022-11-24T14:00:20.663Z,21.58
2022-11-24T14:02:47.216Z,21.55
2022-11-24T14:05:17.619Z,21.52
2022-11-24T14:07:45.333Z,21.55
2022-11-24T14:10:16.152Z,21.57
2022-11-24T14:12:43.692Z,21.54
2022-11-24T14:15:28.537Z,21.55
2022-11-24T14:17:55.001Z,21.56
2022-11-24T14:20:23.788Z,21.58
2022-11-24T14:22:50.599Z,21.63
2022-11-24T14:25:24.100Z,21.66
2022-11-24T14:27:50.653Z,21.69
2022-11-24T14:30:19.592Z,21.63
2022-11-24T14:33:02.270Z,21.68
2022-11-24T14:35:33.167Z,21.80
2022-11-24T14:38:03.769Z,21.95
2022-11-24T14:40:47.157Z,22.03
2022-11-24T14:43:40.328Z,22.14
2022-11-24T14:46:12.123Z,22.17
2022-11-24T14:48:45.796Z,22.18
2022-11-24T14:51:18.142Z,22.19
2022-11-24T14:53:45.201Z,22.20
2022-11-24T14:56:47.934Z,22.19
2022-11-24T14:59:20.985Z,22.24
2022-11-24T15:01:47.477Z,22.23
2022-11-24T15:04:54.522Z,22.23
2022-11-24T15:07:25.692Z,22.03
2022-11-24T15:09:53.739Z,22.00
2022-11-24T15:12:34.731Z,21.89
2022-11-24T15:15:05.225Z,21.93
2022-11-24T15:17:31.795Z,21.85
2022-11-24T15:20:09.694Z,21.80
2022-11-24T15:22:40.852Z,21.77
2022-11-24T15:25:25.911Z,21.73
2022-11-24T15:27:52.822Z,21.69
2022-11-24T15:30:19.316Z,21.71
2022-11-24T15:32:55.736Z,21.76
2022-11-24T15:35:22.815Z,21.87
2022-11-24T15:37:49.862Z,21.91
2022-11-24T15:40:16.486Z,22.01
2022-11-24T15:42:48.726Z,22.04
2022-11-24T15:45:15.261Z,22.07
2022-11-24T15:47:41.722Z,22.08
2022-11-24T15:50:08.697Z,22.13
2022-11-24T15:52:35.215Z,22.11
2022-11-24T15:55:01.685Z,22.15
2022-11-24T15:57:28.210Z,22.14
2022-11-24T15:59:54.720Z,22.07
2022-11-24T16:02:21.854Z,22.03
2022-11-24T16:04:48.973Z,22.01
2022-11-24T16:07:15.553Z,22.03
2022-11-24T16:09:42.071Z,22.02
2022-11-24T16:12:08.641Z,21.94
2022-11-24T16:14:35.884Z,21.93
2022-11-24T16:17:02.694Z,21.90
2022-11-24T16:19:29.223Z,21.88
2022-11-24T16:21:55.691Z,21.88
2022-11-24T16:24:22.177Z,21.85
2022-11-24T16:26:48.635Z,21.82
2022-11-24T16:29:15.115Z,21.78
2022-11-24T16:31:43.459Z,21.76
2022-11-24T16:34:10.115Z,21.75
2022-11-24T16:36:36.598Z,21.71
2022-11-24T16:39:03.111Z,21.69
2022-11-24T16:41:29.631Z,21.71
2022-11-24T16:43:56.131Z,21.75
2022-11-24T16:46:24.059Z,21.80
2022-11-24T16:48:51.791Z,21.84
2022-11-24T16:51:19.753Z,21.85
2022-11-24T16:53:46.247Z,21.92
2022-11-24T16:56:14.289Z,22.08
2022-11-24T16:58:40.944Z,22.38
2022-11-24T17:01:10.218Z,22.63
2022-11-24T17:03:39.628Z,22.79
2022-11-24T17:06:07.410Z,22.86
2022-11-24T17:08:34.923Z,22.92
2022-11-24T17:11:12.435Z,23.10
2022-11-24T17:13:39.054Z,23.29
2022-11-24T17:16:06.613Z,23.43
2022-11-24T17:18:33.361Z,23.52
2022-11-24T17:21:02.098Z,23.50
2022-11-24T17:23:32.622Z,23.68
2022-11-24T17:26:02.702Z,23.75
2022-11-24T17:28:29.363Z,23.82
2022-11-24T17:30:55.902Z,23.83
2022-11-24T17:33:22.422Z,23.88
2022-11-24T17:35:49.167Z,23.83
2022-11-24T17:38:15.674Z,23.89
2022-11-24T17:40:47.074Z,23.88
2022-11-24T17:43:13.516Z,23.91
2022-11-24T17:45:40.014Z,23.94
2022-11-24T17:48:06.648Z,23.96
2022-11-24T17:50:33.113Z,23.84
2022-11-24T17:52:59.608Z,23.88
2022-11-24T17:55:26.071Z,23.94
2022-11-24T17:57:52.593Z,24.05
2022-11-24T18:00:19.364Z,24.04
2022-11-24T18:02:45.899Z,24.03
2022-11-24T18:05:12.436Z,24.06
2022-11-24T18:07:38.969Z,24.03
2022-11-24T18:10:06.024Z,23.96
2022-11-24T18:12:32.580Z,23.96
2022-11-24T18:14:59.787Z,24.03
2022-11-24T18:17:26.254Z,24.03
2022-11-24T18:19:52.737Z,24.05
2022-11-24T18:22:36.639Z,24.05
2022-11-24T18:25:06.988Z,24.03
2022-11-24T18:27:33.447Z,23.92
2022-11-24T18:30:00.040Z,23.95
2022-11-24T18:32:26.545Z,23.88
2022-11-24T18:34:54.078Z,23.89
2022-11-24T18:37:20.573Z,23.88
2022-11-24T18:39:47.422Z,23.81
2022-11-24T18:42:14.217Z,23.78
2022-11-24T18:44:42.323Z,23.80
2022-11-24T18:47:08.940Z,23.75
2022-11-24T18:49:35.416Z,23.76
2022-11-24T18:52:01.879Z,23.75
2022-11-24T18:54:28.429Z,23.81
2022-11-24T18:56:58.906Z,23.86
2022-11-24T18:59:28.350Z,23.78
2022-11-24T19:01:55.967Z,23.72
2022-11-24T19:04:23.970Z,23.70
2022-11-24T19:06:50.434Z,23.67
2022-11-24T19:09:18.618Z,23.75
2022-11-24T19:11:45.366Z,23.67
2022-11-24T19:14:16.463Z,23.64
2022-11-24T19:16:43.204Z,23.61
2022-11-24T19:21:51.540Z,23.51
2022-11-24T19:24:17.968Z,23.47
2022-11-24T19:26:44.384Z,23.50
2022-11-24T19:29:10.829Z,23.51
2022-11-24T19:31:39.307Z,23.49
2022-11-24T19:34:05.927Z,23.40
2022-11-24T19:36:32.720Z,23.43
2022-11-24T19:38:59.504Z,23.41
2022-11-24T19:41:29.672Z,23.40
2022-11-24T19:43:57.827Z,23.36
2022-11-24T19:46:27.933Z,23.32
2022-11-24T19:48:56.318Z,23.32
2022-11-24T19:51:27.413Z,23.25
2022-11-24T19:56:21.318Z,23.26
2022-11-24T19:58:47.856Z,23.29
2022-11-24T20:01:24.912Z,23.32
2022-11-24T20:03:54.961Z,23.32
2022-11-24T20:06:21.637Z,23.24
2022-11-24T20:08:48.175Z,23.23
2022-11-24T20:11:16.029Z,23.23
2022-11-24T20:13:43.328Z,23.33
2022-11-24T20:16:17.137Z,23.32
2022-11-24T20:18:44.641Z,23.36
2022-11-24T20:21:12.656Z,23.32
2022-11-24T20:23:39.509Z,23.32
2022-11-24T20:26:08.171Z,23.30
2022-11-24T20:28:34.733Z,23.37
2022-11-24T20:31:05.914Z,23.42
2022-11-24T20:33:32.366Z,23.45
2022-11-24T20:36:06.629Z,23.47
2022-11-24T20:38:34.428Z,23.50
2022-11-24T20:41:11.573Z,23.56
2022-11-24T20:43:38.372Z,23.62
2022-11-24T20:46:16.019Z,23.71
2022-11-24T20:48:42.505Z,23.78
2022-11-24T20:51:13.968Z,23.78
2022-11-24T20:53:40.846Z,23.82
2022-11-24T20:56:12.144Z,23.80
2022-11-24T20:58:38.612Z,23.83
2022-11-24T21:01:05.074Z,23.93
2022-11-24T21:03:31.587Z,24.03
2022-11-24T21:05:58.067Z,24.06
2022-11-24T21:08:24.525Z,24.05
2022-11-24T21:10:57.389Z,23.97
2022-11-24T21:13:23.827Z,23.99
2022-11-24T21:15:50.640Z,24.02
2022-11-24T21:18:17.431Z,24.10
2022-11-24T21:20:44.048Z,24.13
2022-11-24T21:23:10.561Z,24.11
2022-11-24T21:25:37.017Z,24.08
2022-11-24T21:28:03.561Z,24.03
2022-11-24T21:30:30.068Z,24.13
2022-11-24T21:32:56.516Z,24.09
2022-11-24T21:35:22.971Z,24.13
2022-11-24T21:37:49.479Z,24.09
2022-11-24T21:40:15.965Z,24.07
2022-11-24T21:42:42.404Z,24.07
2022-11-24T21:45:11.519Z,24.09
2022-11-24T21:47:38.416Z,23.96
2022-11-24T21:50:06.534Z,23.94
2022-11-24T21:52:33.212Z,23.89
2022-11-24T21:54:59.934Z,23.87
2022-11-24T21:57:26.541Z,23.87
2022-11-24T21:59:53.035Z,23.82
2022-11-24T22:02:19.514Z,23.82
2022-11-24T22:04:45.999Z,23.80
2022-11-24T22:07:12.696Z,23.79
2022-11-24T22:09:39.232Z,23.78
2022-11-24T22:12:05.947Z,23.77
2022-11-24T22:14:36.101Z,23.77
2022-11-24T22:17:05.428Z,23.81
2022-11-24T22:19:31.882Z,23.74
2022-11-24T22:21:58.333Z,23.73
2022-11-24T22:24:35.939Z,23.74
2022-11-24T22:27:02.931Z,23.74
2022-11-24T22:29:29.396Z,23.71
2022-11-24T22:31:56.287Z,23.70
2022-11-24T22:34:22.794Z,23.69
2022-11-24T22:36:49.244Z,23.76
2022-11-24T22:39:15.695Z,23.94
2022-11-24T22:41:42.202Z,24.00
2022-11-24T22:44:08.745Z,24.01
2022-11-24T22:46:35.201Z,24.21
2022-11-24T22:49:01.806Z,24.11
2022-11-24T22:51:33.060Z,23.94
2022-11-24T22:54:01.176Z,23.89
2022-11-24T22:56:27.955Z,23.89
2022-11-24T22:58:54.497Z,23.90
2022-11-24T23:01:22.407Z,23.94
2022-11-24T23:03:49.474Z,23.97
2022-11-24T23:06:18.318Z,24.01
2022-11-24T23:08:44.790Z,24.05
2022-11-24T23:11:12.032Z,24.11
2022-11-24T23:13:38.773Z,24.16
2022-11-24T23:16:07.258Z,24.20
2022-11-24T23:18:34.132Z,24.22
2022-11-24T23:21:33.644Z,24.28
2022-11-24T23:24:01.459Z,24.30
2022-11-24T23:26:33.508Z,24.34
2022-11-24T23:28:59.991Z,24.39
2022-11-24T23:31:29.909Z,24.42
2022-11-24T23:34:00.722Z,24.43
2022-11-24T23:36:27.259Z,24.43
2022-11-24T23:38:54.351Z,24.44
2022-11-24T23:41:22.859Z,24.45
2022-11-24T23:43:49.322Z,24.49
2022-11-24T23:46:20.455Z,24.47
2022-11-24T23:48:47.065Z,24.44
2022-11-24T23:51:15.266Z,24.34
2022-11-24T23:53:42.095Z,24.37
2022-11-24T23:56:13.810Z,24.37
2022-11-24T23:58:40.268Z,24.37
